sensor_id;sensor_type;location;lat;lon;timestamp;P1;durP1;ratioP1;P2;durP2;ratioP2
15635;SDS011;7917;50.818;6.972;2023-04-01T00:00:45;3.45;;;0.63;;
15635;SDS011;7917;50.818;6.972;2023-04-01T00:03:12;3.33;;;0.82;;
15635;SDS011;7917;50.818;6.972;2023-04-01T00:05:39;1.58;;;0.82;;
15635;SDS011;7917;50.818;6.972;2023-04-01T00:08:06;1.13;;;0.50;;
15635;SDS011;7917;50.818;6.972;2023-04-01T00:10:32;2.03;;;0.60;;
15635;SDS011;7917;50.818;6.972;2023-04-01T00:12:59;1.85;;;0.70;;
15635;SDS011;7917;50.818;6.972;2023-04-01T00:15:26;0.75;;;0.60;;
15635;SDS011;7917;50.818;6.972;2023-04-01T00:17:54;1.38;;;0.65;;
15635;SDS011;7917;50.818;6.972;2023-04-01T00:20:21;1.77;;;0.70;;
15635;SDS011;7917;50.818;6.972;2023-04-01T00:22:48;2.42;;;0.68;;
15635;SDS011;7917;50.818;6.972;2023-04-01T00:28:24;1.85;;;0.70;;
15635;SDS011;7917;50.818;6.972;2023-04-01T00:30:51;1.60;;;0.60;;
15635;SDS011;7917;50.818;6.972;2023-04-01T00:33:18;2.20;;;0.60;;
15635;SDS011;7917;50.818;6.972;2023-04-01T00:35:45;2.80;;;0.80;;
15635;SDS011;7917;50.818;6.972;2023-04-01T00:38:12;1.88;;;0.80;;
15635;SDS011;7917;50.818;6.972;2023-04-01T00:40:40;1.33;;;0.60;;
15635;SDS011;7917;50.818;6.972;2023-04-01T00:43:12;1.75;;;0.70;;
15635;SDS011;7917;50.818;6.972;2023-04-01T00:45:40;2.38;;;0.75;;
15635;SDS011;7917;50.818;6.972;2023-04-01T00:48:09;1.65;;;0.60;;
15635;SDS011;7917;50.818;6.972;2023-04-01T00:50:39;0.68;;;0.50;;
15635;SDS011;7917;50.818;6.972;2023-04-01T00:53:10;0.93;;;0.57;;
15635;SDS011;7917;50.818;6.972;2023-04-01T00:55:39;0.60;;;0.43;;
15635;SDS011;7917;50.818;6.972;2023-04-01T00:58:09;1.75;;;0.68;;
15635;SDS011;7917;50.818;6.972;2023-04-01T01:00:41;0.68;;;0.68;;
15635;SDS011;7917;50.818;6.972;2023-04-01T01:03:08;1.88;;;0.82;;
15635;SDS011;7917;50.818;6.972;2023-04-01T01:05:38;0.40;;;0.40;;
15635;SDS011;7917;50.818;6.972;2023-04-01T01:08:20;2.65;;;0.70;;
15635;SDS011;7917;50.818;6.972;2023-04-01T01:10:56;2.05;;;0.75;;
15635;SDS011;7917;50.818;6.972;2023-04-01T01:13:24;1.50;;;0.60;;
15635;SDS011;7917;50.818;6.972;2023-04-01T01:16:06;0.50;;;0.43;;
15635;SDS011;7917;50.818;6.972;2023-04-01T01:18:42;1.23;;;0.55;;
15635;SDS011;7917;50.818;6.972;2023-04-01T01:21:29;1.27;;;0.50;;
15635;SDS011;7917;50.818;6.972;2023-04-01T01:27:04;1.55;;;0.57;;
15635;SDS011;7917;50.818;6.972;2023-04-01T01:32:38;1.30;;;0.60;;
15635;SDS011;7917;50.818;6.972;2023-04-01T01:35:21;0.95;;;0.60;;
15635;SDS011;7917;50.818;6.972;2023-04-01T01:37:51;2.25;;;0.50;;
15635;SDS011;7917;50.818;6.972;2023-04-01T01:40:22;1.23;;;0.77;;
15635;SDS011;7917;50.818;6.972;2023-04-01T01:42:52;0.40;;;0.40;;
15635;SDS011;7917;50.818;6.972;2023-04-01T01:45:22;0.90;;;0.50;;
15635;SDS011;7917;50.818;6.972;2023-04-01T01:47:51;2.85;;;0.60;;
15635;SDS011;7917;50.818;6.972;2023-04-01T01:50:20;1.50;;;0.55;;
15635;SDS011;7917;50.818;6.972;2023-04-01T01:52:48;0.60;;;0.50;;
15635;SDS011;7917;50.818;6.972;2023-04-01T01:55:25;0.55;;;0.50;;
15635;SDS011;7917;50.818;6.972;2023-04-01T01:57:57;1.38;;;0.45;;
15635;SDS011;7917;50.818;6.972;2023-04-01T02:00:27;1.77;;;0.50;;
15635;SDS011;7917;50.818;6.972;2023-04-01T02:02:54;0.47;;;0.47;;
15635;SDS011;7917;50.818;6.972;2023-04-01T02:05:24;2.10;;;0.60;;
15635;SDS011;7917;50.818;6.972;2023-04-01T02:07:55;0.85;;;0.60;;
15635;SDS011;7917;50.818;6.972;2023-04-01T02:10:27;1.00;;;0.50;;
15635;SDS011;7917;50.818;6.972;2023-04-01T02:12:57;0.98;;;0.50;;
15635;SDS011;7917;50.818;6.972;2023-04-01T02:15:27;0.47;;;0.40;;
15635;SDS011;7917;50.818;6.972;2023-04-01T02:17:58;1.92;;;0.50;;
15635;SDS011;7917;50.818;6.972;2023-04-01T02:20:26;0.90;;;0.40;;
15635;SDS011;7917;50.818;6.972;2023-04-01T02:22:54;1.13;;;0.60;;
15635;SDS011;7917;50.818;6.972;2023-04-01T02:25:25;0.30;;;0.30;;
15635;SDS011;7917;50.818;6.972;2023-04-01T02:27:55;2.95;;;0.70;;
15635;SDS011;7917;50.818;6.972;2023-04-01T02:30:24;1.25;;;0.60;;
15635;SDS011;7917;50.818;6.972;2023-04-01T02:32:53;1.55;;;0.60;;
15635;SDS011;7917;50.818;6.972;2023-04-01T02:35:22;0.68;;;0.57;;
15635;SDS011;7917;50.818;6.972;2023-04-01T02:37:53;1.02;;;0.50;;
15635;SDS011;7917;50.818;6.972;2023-04-01T02:40:21;0.55;;;0.52;;
15635;SDS011;7917;50.818;6.972;2023-04-01T02:42:48;1.33;;;0.63;;
15635;SDS011;7917;50.818;6.972;2023-04-01T02:45:16;2.03;;;0.40;;
15635;SDS011;7917;50.818;6.972;2023-04-01T02:47:43;0.60;;;0.60;;
15635;SDS011;7917;50.818;6.972;2023-04-01T02:50:10;1.52;;;0.60;;
15635;SDS011;7917;50.818;6.972;2023-04-01T02:52:38;1.83;;;0.80;;
15635;SDS011;7917;50.818;6.972;2023-04-01T02:55:06;0.95;;;0.60;;
15635;SDS011;7917;50.818;6.972;2023-04-01T02:57:33;0.50;;;0.50;;
15635;SDS011;7917;50.818;6.972;2023-04-01T03:00:00;1.05;;;0.60;;
15635;SDS011;7917;50.818;6.972;2023-04-01T03:02:29;0.63;;;0.60;;
15635;SDS011;7917;50.818;6.972;2023-04-01T03:04:56;0.65;;;0.57;;
15635;SDS011;7917;50.818;6.972;2023-04-01T03:07:23;2.42;;;0.70;;
15635;SDS011;7917;50.818;6.972;2023-04-01T03:09:50;0.85;;;0.50;;
15635;SDS011;7917;50.818;6.972;2023-04-01T03:12:18;1.70;;;0.65;;
15635;SDS011;7917;50.818;6.972;2023-04-01T03:14:45;0.52;;;0.50;;
15635;SDS011;7917;50.818;6.972;2023-04-01T03:17:12;0.70;;;0.70;;
15635;SDS011;7917;50.818;6.972;2023-04-01T03:19:38;0.88;;;0.60;;
15635;SDS011;7917;50.818;6.972;2023-04-01T03:22:05;0.80;;;0.73;;
15635;SDS011;7917;50.818;6.972;2023-04-01T03:24:32;0.75;;;0.60;;
15635;SDS011;7917;50.818;6.972;2023-04-01T03:26:59;0.65;;;0.60;;
15635;SDS011;7917;50.818;6.972;2023-04-01T03:29:27;0.38;;;0.38;;
15635;SDS011;7917;50.818;6.972;2023-04-01T03:31:54;0.45;;;0.45;;
15635;SDS011;7917;50.818;6.972;2023-04-01T03:34:23;2.83;;;0.60;;
15635;SDS011;7917;50.818;6.972;2023-04-01T03:36:49;0.50;;;0.50;;
15635;SDS011;7917;50.818;6.972;2023-04-01T03:39:16;1.65;;;0.57;;
15635;SDS011;7917;50.818;6.972;2023-04-01T03:41:43;0.65;;;0.50;;
15635;SDS011;7917;50.818;6.972;2023-04-01T03:44:11;0.70;;;0.40;;
15635;SDS011;7917;50.818;6.972;2023-04-01T03:46:39;0.75;;;0.70;;
15635;SDS011;7917;50.818;6.972;2023-04-01T03:49:06;1.45;;;0.70;;
15635;SDS011;7917;50.818;6.972;2023-04-01T03:51:36;0.73;;;0.50;;
15635;SDS011;7917;50.818;6.972;2023-04-01T03:54:03;0.40;;;0.40;;
15635;SDS011;7917;50.818;6.972;2023-04-01T03:56:30;0.68;;;0.40;;
15635;SDS011;7917;50.818;6.972;2023-04-01T03:59:03;0.55;;;0.40;;
15635;SDS011;7917;50.818;6.972;2023-04-01T04:01:31;0.93;;;0.40;;
15635;SDS011;7917;50.818;6.972;2023-04-01T04:03:59;0.88;;;0.50;;
15635;SDS011;7917;50.818;6.972;2023-04-01T04:06:26;0.30;;;0.30;;
15635;SDS011;7917;50.818;6.972;2023-04-01T04:08:53;0.40;;;0.40;;
15635;SDS011;7917;50.818;6.972;2023-04-01T04:11:21;0.57;;;0.35;;
15635;SDS011;7917;50.818;6.972;2023-04-01T04:13:48;0.40;;;0.40;;
15635;SDS011;7917;50.818;6.972;2023-04-01T04:16:15;0.40;;;0.40;;
15635;SDS011;7917;50.818;6.972;2023-04-01T04:18:43;0.35;;;0.35;;
15635;SDS011;7917;50.818;6.972;2023-04-01T04:21:12;0.40;;;0.40;;
15635;SDS011;7917;50.818;6.972;2023-04-01T04:23:40;1.15;;;0.50;;
15635;SDS011;7917;50.818;6.972;2023-04-01T04:26:07;0.40;;;0.40;;
15635;SDS011;7917;50.818;6.972;2023-04-01T04:28:35;0.57;;;0.40;;
15635;SDS011;7917;50.818;6.972;2023-04-01T04:31:03;0.73;;;0.40;;
15635;SDS011;7917;50.818;6.972;2023-04-01T04:33:36;0.52;;;0.30;;
15635;SDS011;7917;50.818;6.972;2023-04-01T04:36:03;0.90;;;0.43;;
15635;SDS011;7917;50.818;6.972;2023-04-01T04:38:31;0.30;;;0.30;;
15635;SDS011;7917;50.818;6.972;2023-04-01T04:40:58;0.52;;;0.50;;
15635;SDS011;7917;50.818;6.972;2023-04-01T04:43:27;1.85;;;0.40;;
15635;SDS011;7917;50.818;6.972;2023-04-01T04:45:54;0.40;;;0.40;;
15635;SDS011;7917;50.818;6.972;2023-04-01T04:48:21;0.32;;;0.30;;
15635;SDS011;7917;50.818;6.972;2023-04-01T04:50:48;0.70;;;0.38;;
15635;SDS011;7917;50.818;6.972;2023-04-01T04:53:16;0.63;;;0.40;;
15635;SDS011;7917;50.818;6.972;2023-04-01T04:55:45;0.47;;;0.47;;
15635;SDS011;7917;50.818;6.972;2023-04-01T04:58:13;0.35;;;0.30;;
15635;SDS011;7917;50.818;6.972;2023-04-01T05:00:40;0.30;;;0.30;;
15635;SDS011;7917;50.818;6.972;2023-04-01T05:03:07;0.40;;;0.40;;
15635;SDS011;7917;50.818;6.972;2023-04-01T05:05:35;0.40;;;0.40;;
15635;SDS011;7917;50.818;6.972;2023-04-01T05:08:02;1.15;;;0.43;;
15635;SDS011;7917;50.818;6.972;2023-04-01T05:10:29;1.23;;;0.40;;
15635;SDS011;7917;50.818;6.972;2023-04-01T05:12:57;0.30;;;0.30;;
15635;SDS011;7917;50.818;6.972;2023-04-01T05:15:24;3.45;;;0.40;;
15635;SDS011;7917;50.818;6.972;2023-04-01T05:17:51;0.20;;;0.20;;
15635;SDS011;7917;50.818;6.972;2023-04-01T05:20:18;0.50;;;0.50;;
15635;SDS011;7917;50.818;6.972;2023-04-01T05:22:45;1.48;;;0.40;;
15635;SDS011;7917;50.818;6.972;2023-04-01T05:25:11;0.20;;;0.20;;
15635;SDS011;7917;50.818;6.972;2023-04-01T05:27:38;0.35;;;0.35;;
15635;SDS011;7917;50.818;6.972;2023-04-01T05:30:07;0.47;;;0.38;;
15635;SDS011;7917;50.818;6.972;2023-04-01T05:32:34;0.95;;;0.95;;
15635;SDS011;7917;50.818;6.972;2023-04-01T05:35:01;1.00;;;0.68;;
15635;SDS011;7917;50.818;6.972;2023-04-01T05:37:28;0.43;;;0.40;;
15635;SDS011;7917;50.818;6.972;2023-04-01T05:39:55;0.40;;;0.30;;
15635;SDS011;7917;50.818;6.972;2023-04-01T05:42:23;0.47;;;0.47;;
15635;SDS011;7917;50.818;6.972;2023-04-01T05:44:51;0.40;;;0.40;;
15635;SDS011;7917;50.818;6.972;2023-04-01T05:47:18;0.43;;;0.43;;
15635;SDS011;7917;50.818;6.972;2023-04-01T05:49:45;0.40;;;0.40;;
15635;SDS011;7917;50.818;6.972;2023-04-01T05:52:12;0.68;;;0.40;;
15635;SDS011;7917;50.818;6.972;2023-04-01T05:54:39;0.40;;;0.40;;
15635;SDS011;7917;50.818;6.972;2023-04-01T05:57:06;0.40;;;0.40;;
15635;SDS011;7917;50.818;6.972;2023-04-01T05:59:36;0.40;;;0.40;;
15635;SDS011;7917;50.818;6.972;2023-04-01T06:02:03;0.95;;;0.45;;
15635;SDS011;7917;50.818;6.972;2023-04-01T06:04:33;1.42;;;0.35;;
15635;SDS011;7917;50.818;6.972;2023-04-01T06:07:05;0.40;;;0.40;;
15635;SDS011;7917;50.818;6.972;2023-04-01T06:09:37;0.57;;;0.57;;
15635;SDS011;7917;50.818;6.972;2023-04-01T06:12:17;0.60;;;0.60;;
15635;SDS011;7917;50.818;6.972;2023-04-01T06:15:10;0.60;;;0.60;;
15635;SDS011;7917;50.818;6.972;2023-04-01T06:17:52;0.40;;;0.40;;
15635;SDS011;7917;50.818;6.972;2023-04-01T06:20:47;0.60;;;0.43;;
15635;SDS011;7917;50.818;6.972;2023-04-01T06:23:24;0.43;;;0.30;;
15635;SDS011;7917;50.818;6.972;2023-04-01T06:28:59;0.60;;;0.60;;
15635;SDS011;7917;50.818;6.972;2023-04-01T06:31:43;0.40;;;0.40;;
15635;SDS011;7917;50.818;6.972;2023-04-01T06:34:27;0.75;;;0.60;;
15635;SDS011;7917;50.818;6.972;2023-04-01T06:40:04;0.40;;;0.40;;
15635;SDS011;7917;50.818;6.972;2023-04-01T06:42:41;0.50;;;0.50;;
15635;SDS011;7917;50.818;6.972;2023-04-01T06:45:24;0.60;;;0.55;;
15635;SDS011;7917;50.818;6.972;2023-04-01T06:48:00;1.33;;;1.00;;
15635;SDS011;7917;50.818;6.972;2023-04-01T06:50:37;1.13;;;1.00;;
15635;SDS011;7917;50.818;6.972;2023-04-01T06:53:12;1.13;;;1.02;;
15635;SDS011;7917;50.818;6.972;2023-04-01T06:55:46;1.50;;;1.08;;
15635;SDS011;7917;50.818;6.972;2023-04-01T06:58:20;1.40;;;1.05;;
15635;SDS011;7917;50.818;6.972;2023-04-01T07:00:49;0.93;;;0.90;;
15635;SDS011;7917;50.818;6.972;2023-04-01T07:03:20;1.02;;;0.93;;
15635;SDS011;7917;50.818;6.972;2023-04-01T07:05:52;1.35;;;1.05;;
15635;SDS011;7917;50.818;6.972;2023-04-01T07:08:24;1.42;;;0.80;;
15635;SDS011;7917;50.818;6.972;2023-04-01T07:10:55;1.42;;;0.88;;
15635;SDS011;7917;50.818;6.972;2023-04-01T07:13:28;1.05;;;0.77;;
15635;SDS011;7917;50.818;6.972;2023-04-01T07:16:03;1.02;;;0.93;;
15635;SDS011;7917;50.818;6.972;2023-04-01T07:18:37;0.80;;;0.80;;
15635;SDS011;7917;50.818;6.972;2023-04-01T07:21:20;2.17;;;0.90;;
15635;SDS011;7917;50.818;6.972;2023-04-01T07:23:51;2.40;;;0.88;;
15635;SDS011;7917;50.818;6.972;2023-04-01T07:26:22;0.50;;;0.50;;
15635;SDS011;7917;50.818;6.972;2023-04-01T07:28:51;1.00;;;0.90;;
15635;SDS011;7917;50.818;6.972;2023-04-01T07:31:21;1.23;;;0.90;;
15635;SDS011;7917;50.818;6.972;2023-04-01T07:33:58;0.93;;;0.70;;
15635;SDS011;7917;50.818;6.972;2023-04-01T07:36:35;0.95;;;0.93;;
15635;SDS011;7917;50.818;6.972;2023-04-01T07:39:11;1.27;;;0.68;;
15635;SDS011;7917;50.818;6.972;2023-04-01T07:41:50;0.90;;;0.82;;
15635;SDS011;7917;50.818;6.972;2023-04-01T07:44:25;1.27;;;1.00;;
15635;SDS011;7917;50.818;6.972;2023-04-01T07:47:00;2.13;;;0.70;;
15635;SDS011;7917;50.818;6.972;2023-04-01T07:49:36;2.47;;;0.93;;
15635;SDS011;7917;50.818;6.972;2023-04-01T07:52:11;1.45;;;1.15;;
15635;SDS011;7917;50.818;6.972;2023-04-01T07:54:46;2.47;;;0.80;;
15635;SDS011;7917;50.818;6.972;2023-04-01T07:57:20;1.50;;;0.95;;
15635;SDS011;7917;50.818;6.972;2023-04-01T07:59:56;1.00;;;0.90;;
15635;SDS011;7917;50.818;6.972;2023-04-01T08:02:33;0.80;;;0.75;;
15635;SDS011;7917;50.818;6.972;2023-04-01T08:05:14;1.13;;;0.70;;
15635;SDS011;7917;50.818;6.972;2023-04-01T08:07:52;0.60;;;0.60;;
15635;SDS011;7917;50.818;6.972;2023-04-01T08:10:30;0.80;;;0.80;;
15635;SDS011;7917;50.818;6.972;2023-04-01T08:13:05;0.90;;;0.90;;
15635;SDS011;7917;50.818;6.972;2023-04-01T08:15:41;1.35;;;0.80;;
15635;SDS011;7917;50.818;6.972;2023-04-01T08:18:17;3.10;;;1.10;;
15635;SDS011;7917;50.818;6.972;2023-04-01T08:20:54;1.05;;;0.70;;
15635;SDS011;7917;50.818;6.972;2023-04-01T08:23:26;1.02;;;0.75;;
15635;SDS011;7917;50.818;6.972;2023-04-01T08:25:58;2.28;;;0.70;;
15635;SDS011;7917;50.818;6.972;2023-04-01T08:28:29;0.55;;;0.55;;
15635;SDS011;7917;50.818;6.972;2023-04-01T08:31:01;0.50;;;0.50;;
15635;SDS011;7917;50.818;6.972;2023-04-01T08:33:31;0.55;;;0.55;;
15635;SDS011;7917;50.818;6.972;2023-04-01T08:36:02;0.95;;;0.70;;
15635;SDS011;7917;50.818;6.972;2023-04-01T08:38:34;0.55;;;0.55;;
15635;SDS011;7917;50.818;6.972;2023-04-01T08:44:27;0.60;;;0.60;;
15635;SDS011;7917;50.818;6.972;2023-04-01T08:47:13;0.50;;;0.50;;
15635;SDS011;7917;50.818;6.972;2023-04-01T08:52:58;0.50;;;0.40;;
15635;SDS011;7917;50.818;6.972;2023-04-01T08:55:36;0.95;;;0.90;;
15635;SDS011;7917;50.818;6.972;2023-04-01T09:01:19;0.60;;;0.60;;
15635;SDS011;7917;50.818;6.972;2023-04-01T09:04:10;0.90;;;0.70;;
15635;SDS011;7917;50.818;6.972;2023-04-01T09:06:51;1.10;;;0.60;;
15635;SDS011;7917;50.818;6.972;2023-04-01T09:15:30;0.70;;;0.70;;
15635;SDS011;7917;50.818;6.972;2023-04-01T09:21:25;1.05;;;0.70;;
15635;SDS011;7917;50.818;6.972;2023-04-01T09:27:08;1.10;;;0.75;;
15635;SDS011;7917;50.818;6.972;2023-04-01T09:29:54;1.10;;;0.80;;
15635;SDS011;7917;50.818;6.972;2023-04-01T09:32:54;1.35;;;0.68;;
15635;SDS011;7917;50.818;6.972;2023-04-01T09:35:45;0.80;;;0.70;;
15635;SDS011;7917;50.818;6.972;2023-04-01T09:38:21;1.00;;;0.70;;
15635;SDS011;7917;50.818;6.972;2023-04-01T09:40:54;0.70;;;0.70;;
15635;SDS011;7917;50.818;6.972;2023-04-01T09:43:25;0.77;;;0.63;;
15635;SDS011;7917;50.818;6.972;2023-04-01T09:46:06;0.90;;;0.70;;
15635;SDS011;7917;50.818;6.972;2023-04-01T09:51:45;0.65;;;0.65;;
15635;SDS011;7917;50.818;6.972;2023-04-01T09:54:26;1.33;;;1.05;;
15635;SDS011;7917;50.818;6.972;2023-04-01T09:57:10;0.93;;;0.70;;
15635;SDS011;7917;50.818;6.972;2023-04-01T10:00:10;1.52;;;0.75;;
15635;SDS011;7917;50.818;6.972;2023-04-01T10:03:13;1.30;;;0.70;;
15635;SDS011;7917;50.818;6.972;2023-04-01T10:15:23;1.20;;;0.82;;
15635;SDS011;7917;50.818;6.972;2023-04-01T10:18:26;0.93;;;0.80;;
15635;SDS011;7917;50.818;6.972;2023-04-01T10:21:22;0.88;;;0.80;;
15635;SDS011;7917;50.818;6.972;2023-04-01T10:27:10;0.60;;;0.60;;
15635;SDS011;7917;50.818;6.972;2023-04-01T10:39:17;0.65;;;0.65;;
15635;SDS011;7917;50.818;6.972;2023-04-01T10:42:06;0.57;;;0.55;;
15635;SDS011;7917;50.818;6.972;2023-04-01T10:48:13;1.20;;;0.80;;
15635;SDS011;7917;50.818;6.972;2023-04-01T10:54:00;1.00;;;0.70;;
15635;SDS011;7917;50.818;6.972;2023-04-01T10:56:45;1.13;;;0.63;;
15635;SDS011;7917;50.818;6.972;2023-04-01T11:08:50;2.47;;;0.80;;
15635;SDS011;7917;50.818;6.972;2023-04-01T11:17:55;0.65;;;0.65;;
15635;SDS011;7917;50.818;6.972;2023-04-01T11:20:53;0.60;;;0.60;;
15635;SDS011;7917;50.818;6.972;2023-04-01T11:24:02;1.23;;;0.93;;
15635;SDS011;7917;50.818;6.972;2023-04-01T11:26:51;1.02;;;0.93;;
15635;SDS011;7917;50.818;6.972;2023-04-01T11:32:25;3.17;;;0.95;;
15635;SDS011;7917;50.818;6.972;2023-04-01T11:38:22;0.70;;;0.68;;
15635;SDS011;7917;50.818;6.972;2023-04-01T11:40:58;0.70;;;0.70;;
15635;SDS011;7917;50.818;6.972;2023-04-01T11:43:37;1.00;;;0.90;;
15635;SDS011;7917;50.818;6.972;2023-04-01T11:46:10;0.75;;;0.73;;
15635;SDS011;7917;50.818;6.972;2023-04-01T11:54:22;0.82;;;0.60;;
15635;SDS011;7917;50.818;6.972;2023-04-01T11:57:04;0.95;;;0.70;;
15635;SDS011;7917;50.818;6.972;2023-04-01T11:59:52;2.33;;;0.73;;
15635;SDS011;7917;50.818;6.972;2023-04-01T12:02:29;0.70;;;0.60;;
15635;SDS011;7917;50.818;6.972;2023-04-01T12:05:19;1.70;;;0.50;;
15635;SDS011;7917;50.818;6.972;2023-04-01T12:08:06;0.75;;;0.63;;
15635;SDS011;7917;50.818;6.972;2023-04-01T12:10:48;0.90;;;0.73;;
15635;SDS011;7917;50.818;6.972;2023-04-01T12:13:26;0.95;;;0.77;;
15635;SDS011;7917;50.818;6.972;2023-04-01T12:19:27;1.05;;;0.80;;
15635;SDS011;7917;50.818;6.972;2023-04-01T12:22:11;1.17;;;1.00;;
15635;SDS011;7917;50.818;6.972;2023-04-01T12:24:55;0.80;;;0.80;;
15635;SDS011;7917;50.818;6.972;2023-04-01T12:27:37;1.10;;;0.98;;
15635;SDS011;7917;50.818;6.972;2023-04-01T12:33:25;0.60;;;0.60;;
15635;SDS011;7917;50.818;6.972;2023-04-01T12:36:09;1.05;;;0.75;;
15635;SDS011;7917;50.818;6.972;2023-04-01T12:38:50;1.42;;;0.57;;
15635;SDS011;7917;50.818;6.972;2023-04-01T12:41:32;0.90;;;0.47;;
15635;SDS011;7917;50.818;6.972;2023-04-01T12:44:13;2.00;;;0.68;;
15635;SDS011;7917;50.818;6.972;2023-04-01T12:46:56;1.58;;;0.50;;
15635;SDS011;7917;50.818;6.972;2023-04-01T12:49:44;0.77;;;0.47;;
15635;SDS011;7917;50.818;6.972;2023-04-01T12:52:31;0.93;;;0.63;;
15635;SDS011;7917;50.818;6.972;2023-04-01T12:55:20;0.60;;;0.50;;
15635;SDS011;7917;50.818;6.972;2023-04-01T13:01:27;1.15;;;0.65;;
15635;SDS011;7917;50.818;6.972;2023-04-01T13:04:25;0.70;;;0.70;;
15635;SDS011;7917;50.818;6.972;2023-04-01T13:07:48;0.73;;;0.70;;
15635;SDS011;7917;50.818;6.972;2023-04-01T13:10:31;0.85;;;0.85;;
15635;SDS011;7917;50.818;6.972;2023-04-01T13:16:05;0.60;;;0.60;;
15635;SDS011;7917;50.818;6.972;2023-04-01T13:18:39;1.58;;;0.70;;
15635;SDS011;7917;50.818;6.972;2023-04-01T13:21:16;1.55;;;0.80;;
15635;SDS011;7917;50.818;6.972;2023-04-01T13:24:00;0.70;;;0.70;;
15635;SDS011;7917;50.818;6.972;2023-04-01T13:27:02;1.42;;;0.70;;
15635;SDS011;7917;50.818;6.972;2023-04-01T13:29:36;0.60;;;0.60;;
15635;SDS011;7917;50.818;6.972;2023-04-01T13:32:13;0.50;;;0.50;;
15635;SDS011;7917;50.818;6.972;2023-04-01T13:34:58;0.80;;;0.73;;
15635;SDS011;7917;50.818;6.972;2023-04-01T13:37:43;0.60;;;0.60;;
15635;SDS011;7917;50.818;6.972;2023-04-01T13:40:36;0.80;;;0.80;;
15635;SDS011;7917;50.818;6.972;2023-04-01T13:43:14;0.70;;;0.70;;
15635;SDS011;7917;50.818;6.972;2023-04-01T13:48:50;0.82;;;0.82;;
15635;SDS011;7917;50.818;6.972;2023-04-01T13:51:34;1.30;;;1.20;;
15635;SDS011;7917;50.818;6.972;2023-04-01T13:54:33;1.33;;;1.23;;
15635;SDS011;7917;50.818;6.972;2023-04-01T13:57:16;1.33;;;1.20;;
15635;SDS011;7917;50.818;6.972;2023-04-01T14:00:00;1.50;;;1.40;;
15635;SDS011;7917;50.818;6.972;2023-04-01T14:02:49;2.55;;;1.30;;
15635;SDS011;7917;50.818;6.972;2023-04-01T14:05:29;1.55;;;1.45;;
15635;SDS011;7917;50.818;6.972;2023-04-01T14:08:09;1.80;;;1.30;;
15635;SDS011;7917;50.818;6.972;2023-04-01T14:10:48;1.25;;;1.00;;
15635;SDS011;7917;50.818;6.972;2023-04-01T14:13:23;1.67;;;1.30;;
15635;SDS011;7917;50.818;6.972;2023-04-01T14:16:00;1.35;;;1.20;;
15635;SDS011;7917;50.818;6.972;2023-04-01T14:18:42;1.10;;;0.80;;
15635;SDS011;7917;50.818;6.972;2023-04-01T14:21:29;3.00;;;1.10;;
15635;SDS011;7917;50.818;6.972;2023-04-01T14:24:19;1.45;;;1.20;;
15635;SDS011;7917;50.818;6.972;2023-04-01T14:27:24;1.52;;;1.40;;
15635;SDS011;7917;50.818;6.972;2023-04-01T14:30:25;0.95;;;0.95;;
15635;SDS011;7917;50.818;6.972;2023-04-01T14:33:10;2.10;;;1.05;;
15635;SDS011;7917;50.818;6.972;2023-04-01T14:35:49;1.30;;;1.20;;
15635;SDS011;7917;50.818;6.972;2023-04-01T14:41:32;1.80;;;0.90;;
15635;SDS011;7917;50.818;6.972;2023-04-01T14:44:23;1.90;;;1.08;;
15635;SDS011;7917;50.818;6.972;2023-04-01T14:47:34;2.20;;;1.13;;
15635;SDS011;7917;50.818;6.972;2023-04-01T14:50:11;1.67;;;1.02;;
15635;SDS011;7917;50.818;6.972;2023-04-01T14:52:43;3.28;;;0.90;;
15635;SDS011;7917;50.818;6.972;2023-04-01T14:55:20;1.02;;;0.93;;
15635;SDS011;7917;50.818;6.972;2023-04-01T14:58:07;1.05;;;1.02;;
15635;SDS011;7917;50.818;6.972;2023-04-01T15:00:45;1.00;;;1.00;;
15635;SDS011;7917;50.818;6.972;2023-04-01T15:03:46;2.20;;;1.27;;
15635;SDS011;7917;50.818;6.972;2023-04-01T15:06:32;1.48;;;1.00;;
15635;SDS011;7917;50.818;6.972;2023-04-01T15:09:13;1.10;;;1.00;;
15635;SDS011;7917;50.818;6.972;2023-04-01T15:11:52;1.27;;;1.20;;
15635;SDS011;7917;50.818;6.972;2023-04-01T15:14:35;1.65;;;1.10;;
15635;SDS011;7917;50.818;6.972;2023-04-01T15:17:23;1.35;;;1.10;;
15635;SDS011;7917;50.818;6.972;2023-04-01T15:20:14;1.70;;;1.10;;
15635;SDS011;7917;50.818;6.972;2023-04-01T15:23:08;1.30;;;1.10;;
15635;SDS011;7917;50.818;6.972;2023-04-01T15:25:49;1.98;;;1.15;;
15635;SDS011;7917;50.818;6.972;2023-04-01T15:28:32;1.58;;;1.45;;
15635;SDS011;7917;50.818;6.972;2023-04-01T15:31:07;2.50;;;1.48;;
15635;SDS011;7917;50.818;6.972;2023-04-01T15:33:53;2.13;;;1.50;;
15635;SDS011;7917;50.818;6.972;2023-04-01T15:36:33;1.85;;;1.35;;
15635;SDS011;7917;50.818;6.972;2023-04-01T15:39:09;2.53;;;2.03;;
15635;SDS011;7917;50.818;6.972;2023-04-01T15:41:43;4.13;;;2.33;;
15635;SDS011;7917;50.818;6.972;2023-04-01T15:44:32;1.90;;;1.70;;
15635;SDS011;7917;50.818;6.972;2023-04-01T15:50:51;1.83;;;1.55;;
15635;SDS011;7917;50.818;6.972;2023-04-01T15:53:36;3.72;;;2.42;;
15635;SDS011;7917;50.818;6.972;2023-04-01T15:56:16;1.42;;;1.33;;
15635;SDS011;7917;50.818;6.972;2023-04-01T15:58:54;2.00;;;1.50;;
15635;SDS011;7917;50.818;6.972;2023-04-01T16:01:35;2.20;;;2.00;;
15635;SDS011;7917;50.818;6.972;2023-04-01T16:09:53;1.83;;;1.73;;
15635;SDS011;7917;50.818;6.972;2023-04-01T16:12:36;1.85;;;1.73;;
15635;SDS011;7917;50.818;6.972;2023-04-01T16:15:17;2.38;;;1.77;;
15635;SDS011;7917;50.818;6.972;2023-04-01T16:17:59;2.38;;;2.17;;
15635;SDS011;7917;50.818;6.972;2023-04-01T16:20:49;2.03;;;1.83;;
15635;SDS011;7917;50.818;6.972;2023-04-01T16:23:24;2.22;;;2.03;;
15635;SDS011;7917;50.818;6.972;2023-04-01T16:26:01;2.75;;;2.10;;
15635;SDS011;7917;50.818;6.972;2023-04-01T16:28:36;2.67;;;2.25;;
15635;SDS011;7917;50.818;6.972;2023-04-01T16:31:10;2.60;;;2.25;;
15635;SDS011;7917;50.818;6.972;2023-04-01T16:33:45;3.47;;;2.10;;
15635;SDS011;7917;50.818;6.972;2023-04-01T16:36:24;2.40;;;2.20;;
15635;SDS011;7917;50.818;6.972;2023-04-01T16:39:06;4.90;;;3.03;;
15635;SDS011;7917;50.818;6.972;2023-04-01T16:41:49;2.72;;;2.35;;
15635;SDS011;7917;50.818;6.972;2023-04-01T16:44:24;2.10;;;1.90;;
15635;SDS011;7917;50.818;6.972;2023-04-01T16:46:52;2.38;;;2.10;;
15635;SDS011;7917;50.818;6.972;2023-04-01T16:49:29;3.05;;;2.40;;
15635;SDS011;7917;50.818;6.972;2023-04-01T16:52:13;2.92;;;1.90;;
15635;SDS011;7917;50.818;6.972;2023-04-01T16:54:44;2.13;;;1.98;;
15635;SDS011;7917;50.818;6.972;2023-04-01T16:57:20;2.47;;;1.80;;
15635;SDS011;7917;50.818;6.972;2023-04-01T16:59:54;5.18;;;1.52;;
15635;SDS011;7917;50.818;6.972;2023-04-01T17:02:30;2.60;;;1.63;;
15635;SDS011;7917;50.818;6.972;2023-04-01T17:05:00;3.28;;;1.60;;
15635;SDS011;7917;50.818;6.972;2023-04-01T17:07:33;1.42;;;1.33;;
15635;SDS011;7917;50.818;6.972;2023-04-01T17:10:14;1.83;;;1.60;;
15635;SDS011;7917;50.818;6.972;2023-04-01T17:13:06;1.60;;;1.50;;
15635;SDS011;7917;50.818;6.972;2023-04-01T17:15:54;1.67;;;1.58;;
15635;SDS011;7917;50.818;6.972;2023-04-01T17:18:28;1.50;;;1.40;;
15635;SDS011;7917;50.818;6.972;2023-04-01T17:21:05;2.03;;;1.40;;
15635;SDS011;7917;50.818;6.972;2023-04-01T17:23:42;3.08;;;1.92;;
15635;SDS011;7917;50.818;6.972;2023-04-01T17:26:24;1.80;;;1.67;;
15635;SDS011;7917;50.818;6.972;2023-04-01T17:28:57;1.70;;;1.60;;
15635;SDS011;7917;50.818;6.972;2023-04-01T17:31:36;1.88;;;1.77;;
15635;SDS011;7917;50.818;6.972;2023-04-01T17:37:26;2.88;;;1.65;;
15635;SDS011;7917;50.818;6.972;2023-04-01T17:40:11;4.10;;;1.63;;
15635;SDS011;7917;50.818;6.972;2023-04-01T17:42:53;1.75;;;1.55;;
15635;SDS011;7917;50.818;6.972;2023-04-01T17:45:31;2.60;;;1.67;;
15635;SDS011;7917;50.818;6.972;2023-04-01T17:48:10;2.00;;;1.80;;
15635;SDS011;7917;50.818;6.972;2023-04-01T17:50:48;2.13;;;2.03;;
15635;SDS011;7917;50.818;6.972;2023-04-01T17:53:31;2.40;;;2.20;;
15635;SDS011;7917;50.818;6.972;2023-04-01T17:56:09;3.90;;;2.10;;
15635;SDS011;7917;50.818;6.972;2023-04-01T17:58:45;2.22;;;2.03;;
15635;SDS011;7917;50.818;6.972;2023-04-01T18:01:17;3.05;;;2.40;;